createdAt,value
2018-11-06T00:01:32.336Z,91.50
2018-11-06T00:05:11.934Z,91.50
2018-11-06T00:08:45.173Z,91.60
2018-11-06T00:12:18.424Z,91.60
2018-11-06T00:15:51.682Z,91.70
2018-11-06T00:19:24.945Z,91.70
2018-11-06T00:22:58.177Z,91.80
2018-11-06T00:26:31.427Z,91.80
2018-11-06T00:30:05.275Z,91.80
2018-11-06T00:33:38.504Z,91.90
2018-11-06T00:37:11.745Z,92.00
2018-11-06T00:40:44.996Z,92.10
2018-11-06T00:44:18.218Z,92.10
2018-11-06T00:47:51.460Z,92.20
2018-11-06T00:51:24.698Z,92.10
2018-11-06T00:54:57.940Z,92.20
2018-11-06T00:58:31.171Z,92.20
2018-11-06T01:02:04.421Z,92.30
2018-11-06T01:05:37.665Z,92.30
2018-11-06T01:09:12.308Z,92.40
2018-11-06T01:12:45.550Z,92.50
2018-11-06T01:16:18.809Z,92.50
2018-11-06T01:19:52.055Z,92.60
2018-11-06T01:23:25.289Z,92.60
2018-11-06T01:26:58.527Z,92.60
2018-11-06T01:30:31.777Z,92.60
2018-11-06T01:34:05.086Z,92.60
2018-11-06T01:37:38.339Z,92.70
2018-11-06T01:41:11.580Z,92.70
2018-11-06T01:44:44.815Z,92.60
2018-11-06T01:48:18.050Z,92.90
2018-11-06T01:51:51.323Z,92.50
2018-11-06T01:55:24.563Z,92.50
2018-11-06T01:58:57.814Z,92.60
2018-11-06T02:02:31.045Z,92.70
2018-11-06T02:06:04.496Z,92.70
2018-11-06T02:09:37.760Z,92.80
2018-11-06T02:13:11.020Z,92.90
2018-11-06T02:16:44.265Z,92.90
2018-11-06T02:20:17.547Z,93.00
2018-11-06T02:23:50.784Z,93.00
2018-11-06T02:27:24.037Z,93.10
2018-11-06T02:30:57.277Z,93.10
2018-11-06T02:34:30.537Z,93.20
2018-11-06T02:38:03.779Z,93.20
2018-11-06T02:41:37.035Z,93.20
2018-11-06T02:45:11.116Z,93.10
2018-11-06T02:48:44.367Z,93.00
2018-11-06T02:52:17.605Z,93.00
2018-11-06T02:55:51.533Z,93.00
2018-11-06T02:59:24.953Z,93.20
2018-11-06T03:02:58.219Z,93.20
2018-11-06T03:06:31.450Z,93.20
2018-11-06T03:10:04.808Z,93.10
2018-11-06T03:13:38.028Z,93.10
2018-11-06T03:17:11.280Z,93.10
2018-11-06T03:20:44.504Z,93.10
2018-11-06T03:24:17.748Z,93.10
2018-11-06T03:27:50.997Z,93.20
2018-11-06T03:31:24.241Z,93.20
2018-11-06T03:34:57.601Z,93.20
2018-11-06T03:38:30.845Z,92.90
2018-11-06T03:42:04.112Z,92.80
2018-11-06T03:45:37.346Z,92.70
2018-11-06T03:49:10.593Z,92.70
2018-11-06T03:52:43.838Z,92.80
2018-11-06T03:56:17.081Z,92.80
2018-11-06T03:59:50.306Z,93.30
2018-11-06T04:03:23.555Z,92.90
2018-11-06T04:06:56.805Z,92.90
2018-11-06T04:10:30.038Z,92.90
2018-11-06T04:14:03.312Z,92.90
2018-11-06T04:17:36.544Z,92.90
2018-11-06T04:21:09.785Z,92.80
2018-11-06T04:24:43.020Z,92.60
2018-11-06T04:28:16.260Z,92.50
2018-11-06T04:31:49.493Z,93.20
2018-11-06T04:35:22.754Z,92.60
2018-11-06T04:38:56.245Z,92.40
2018-11-06T04:42:29.522Z,92.30
2018-11-06T04:46:02.745Z,92.10
2018-11-06T04:49:36.010Z,91.60
2018-11-06T04:53:09.242Z,91.80
2018-11-06T04:56:42.485Z,91.80
2018-11-06T05:00:15.816Z,91.90
2018-11-06T05:03:49.065Z,92.00
2018-11-06T05:07:22.293Z,92.20
2018-11-06T05:10:55.559Z,92.20
2018-11-06T05:14:28.791Z,92.10
2018-11-06T05:18:02.041Z,92.00
2018-11-06T05:21:35.296Z,91.80
2018-11-06T05:25:08.979Z,91.70
2018-11-06T05:28:42.220Z,91.60
2018-11-06T05:32:15.480Z,91.40
2018-11-06T05:35:48.704Z,91.20
2018-11-06T05:39:21.977Z,91.10
2018-11-06T05:42:55.389Z,91.20
2018-11-06T05:46:28.702Z,91.10
2018-11-06T05:50:01.967Z,91.10
2018-11-06T05:53:35.739Z,91.00
2018-11-06T05:57:09.065Z,90.90
2018-11-06T06:00:42.360Z,90.90
2018-11-06T06:04:15.536Z,90.90
2018-11-06T06:07:48.818Z,90.90
2018-11-06T06:11:22.142Z,90.70
2018-11-06T06:14:55.388Z,90.70
2018-11-06T06:18:28.642Z,90.60
2018-11-06T06:22:01.888Z,90.50
2018-11-06T06:25:35.111Z,90.50
2018-11-06T06:29:08.518Z,90.60
2018-11-06T06:32:41.935Z,90.60
2018-11-06T06:36:15.306Z,90.50
2018-11-06T06:39:49.417Z,90.40
2018-11-06T06:43:22.861Z,90.40
2018-11-06T06:46:56.102Z,90.50
2018-11-06T06:50:29.358Z,90.60
2018-11-06T06:54:02.608Z,90.60
2018-11-06T06:57:36.343Z,91.00
2018-11-06T07:01:09.568Z,90.60
2018-11-06T07:04:42.796Z,90.60
2018-11-06T07:08:16.038Z,90.70
2018-11-06T07:11:49.262Z,91.10
2018-11-06T07:15:23.164Z,91.10
2018-11-06T07:18:56.400Z,91.30
2018-11-06T07:22:29.684Z,91.50
2018-11-06T07:26:02.957Z,91.10
2018-11-06T07:29:36.213Z,91.10
2018-11-06T07:33:09.457Z,91.10
2018-11-06T07:36:42.690Z,91.10
2018-11-06T07:40:17.290Z,91.10
2018-11-06T07:43:50.529Z,91.00
2018-11-06T07:47:23.773Z,91.00
2018-11-06T07:50:57.021Z,90.90
2018-11-06T07:54:30.261Z,91.00
2018-11-06T07:58:03.581Z,90.90
2018-11-06T08:01:36.845Z,90.90
2018-11-06T08:05:10.264Z,90.90
2018-11-06T08:08:43.525Z,91.00
2018-11-06T08:12:16.769Z,91.00
2018-11-06T08:15:50.025Z,91.00
2018-11-06T08:19:23.266Z,91.10
2018-11-06T08:22:56.528Z,91.10
2018-11-06T08:26:29.968Z,91.10
2018-11-06T08:30:03.263Z,91.10
2018-11-06T08:33:36.513Z,91.10
2018-11-06T08:37:09.827Z,91.00
2018-11-06T08:40:43.033Z,90.90
2018-11-06T08:44:16.318Z,90.90
2018-11-06T08:47:49.558Z,90.70
2018-11-06T08:51:22.817Z,90.70
2018-11-06T08:54:56.056Z,90.60
2018-11-06T08:58:29.361Z,90.50
2018-11-06T09:02:02.576Z,90.30
2018-11-06T09:05:35.830Z,90.10
2018-11-06T09:09:10.369Z,89.80
2018-11-06T09:12:43.621Z,89.20
2018-11-06T09:16:16.936Z,88.60
2018-11-06T09:19:50.201Z,88.00
2018-11-06T09:23:23.446Z,88.50
2018-11-06T09:26:56.709Z,87.20
2018-11-06T09:30:29.953Z,86.20
2018-11-06T09:34:03.210Z,85.20
2018-11-06T09:37:36.453Z,84.30
2018-11-06T09:41:09.751Z,83.50
2018-11-06T09:44:42.961Z,82.90
2018-11-06T09:48:16.217Z,82.20
2018-11-06T09:51:49.511Z,81.30
2018-11-06T09:55:22.729Z,80.10
2018-11-06T09:58:55.992Z,78.70
2018-11-06T10:02:29.224Z,79.00
2018-11-06T10:06:02.565Z,78.70
2018-11-06T10:09:35.738Z,78.10
2018-11-06T10:13:08.992Z,77.20
2018-11-06T10:16:42.218Z,76.60
2018-11-06T10:20:16.631Z,76.00
2018-11-06T10:23:49.868Z,75.40
2018-11-06T10:27:23.118Z,74.80
2018-11-06T10:30:56.419Z,74.30
2018-11-06T10:34:29.620Z,74.00
2018-11-06T10:38:02.912Z,73.70
2018-11-06T10:41:36.232Z,73.00
2018-11-06T10:45:09.633Z,72.30
2018-11-06T10:48:42.890Z,71.40
2018-11-06T10:52:16.393Z,70.90
2018-11-06T10:55:49.633Z,70.20
2018-11-06T10:59:22.873Z,69.30
2018-11-06T11:03:01.414Z,69.10
2018-11-06T11:06:34.660Z,68.90
2018-11-06T11:10:07.909Z,67.90
2018-11-06T11:13:41.133Z,67.10
2018-11-06T11:17:14.368Z,66.10
2018-11-06T11:20:47.606Z,65.20
2018-11-06T11:24:20.859Z,65.10
2018-11-06T11:27:54.085Z,64.40
2018-11-06T11:31:27.391Z,63.80
2018-11-06T11:35:00.599Z,63.50
2018-11-06T11:38:33.828Z,63.00
2018-11-06T11:42:07.062Z,62.20
2018-11-06T11:45:40.291Z,61.60
2018-11-06T11:49:13.536Z,61.30
2018-11-06T11:52:46.769Z,60.80
2018-11-06T11:56:20.014Z,60.50
2018-11-06T11:59:53.299Z,60.40
2018-11-06T12:03:26.509Z,60.10
2018-11-06T12:06:59.745Z,60.20
2018-11-06T12:10:32.988Z,60.20
2018-11-06T12:14:06.394Z,60.30
2018-11-06T12:17:39.669Z,60.50
2018-11-06T12:21:12.921Z,60.60
2018-11-06T12:24:46.268Z,60.60
2018-11-06T12:28:19.397Z,60.30
2018-11-06T12:31:52.643Z,60.10
2018-11-06T12:35:25.889Z,59.90
2018-11-06T12:38:59.140Z,59.80
2018-11-06T12:42:32.361Z,59.50
2018-11-06T12:46:05.920Z,59.20
2018-11-06T12:49:39.166Z,58.80
2018-11-06T12:53:12.389Z,58.30
2018-11-06T12:56:45.693Z,58.00
2018-11-06T13:00:19.886Z,57.80
2018-11-06T13:03:53.132Z,57.60
2018-11-06T13:07:26.384Z,57.40
2018-11-06T13:10:59.628Z,57.30
2018-11-06T13:14:32.885Z,57.30
2018-11-06T13:18:06.126Z,57.10
2018-11-06T13:21:39.369Z,57.20
2018-11-06T13:25:12.640Z,57.10
2018-11-06T13:28:45.901Z,57.10
2018-11-06T13:32:19.158Z,57.90
2018-11-06T13:35:52.392Z,57.40
2018-11-06T13:39:25.633Z,57.70
2018-11-06T13:42:58.948Z,57.90
2018-11-06T13:46:32.116Z,58.20
2018-11-06T13:50:05.578Z,58.50
2018-11-06T13:53:38.812Z,58.70
2018-11-06T13:57:12.081Z,58.90
2018-11-06T14:00:45.327Z,59.20
2018-11-06T14:04:18.616Z,59.80
2018-11-06T14:07:51.858Z,60.50
2018-11-06T14:11:25.128Z,61.00
2018-11-06T14:14:58.368Z,61.60
2018-11-06T14:18:31.600Z,62.00
2018-11-06T14:22:05.095Z,62.60
2018-11-06T14:25:38.361Z,62.80
2018-11-06T14:29:11.589Z,63.00
2018-11-06T14:32:45.208Z,63.00
2018-11-06T14:36:18.453Z,63.00
2018-11-06T14:39:51.710Z,63.00
2018-11-06T14:43:24.949Z,62.70
2018-11-06T14:46:58.191Z,62.60
2018-11-06T14:50:31.442Z,62.70
2018-11-06T14:54:04.819Z,62.80
2018-11-06T14:57:38.081Z,62.90
2018-11-06T15:01:11.328Z,63.00
2018-11-06T15:04:44.577Z,64.10
2018-11-06T15:08:17.824Z,63.40
2018-11-06T15:11:51.073Z,63.90
2018-11-06T15:15:24.309Z,64.40
2018-11-06T15:18:57.553Z,65.30
2018-11-06T15:22:30.809Z,66.60
2018-11-06T15:26:04.044Z,67.60
2018-11-06T15:29:37.301Z,68.50
2018-11-06T15:33:10.558Z,69.60
2018-11-06T15:36:43.809Z,71.30
2018-11-06T15:40:18.348Z,71.30
2018-11-06T15:43:51.581Z,72.10
2018-11-06T15:47:24.869Z,72.90
2018-11-06T15:50:58.101Z,73.80
2018-11-06T15:54:31.367Z,74.50
2018-11-06T15:58:04.676Z,75.30
2018-11-06T16:01:37.949Z,76.40
2018-11-06T16:05:11.187Z,77.00
2018-11-06T16:08:44.457Z,77.60
2018-11-06T16:12:17.775Z,78.10
2018-11-06T16:15:51.025Z,78.80
2018-11-06T16:19:24.454Z,79.40
2018-11-06T16:22:57.696Z,79.90
2018-11-06T16:26:30.953Z,80.50
2018-11-06T16:30:04.485Z,80.90
2018-11-06T16:33:37.729Z,81.30
2018-11-06T16:37:10.974Z,81.60
2018-11-06T16:40:44.215Z,82.00
2018-11-06T16:44:17.471Z,82.30
2018-11-06T16:47:51.585Z,82.60
2018-11-06T16:51:24.813Z,82.80
2018-11-06T16:54:58.115Z,83.10
2018-11-06T16:58:31.357Z,83.30
2018-11-06T17:02:04.864Z,83.60
2018-11-06T17:05:38.118Z,83.50
2018-11-06T17:09:11.349Z,83.40
2018-11-06T17:12:44.612Z,83.30
2018-11-06T17:16:17.882Z,83.80
2018-11-06T17:19:51.141Z,83.40
2018-11-06T17:23:24.394Z,83.50
2018-11-06T17:26:57.629Z,83.50
2018-11-06T17:30:30.898Z,83.50
2018-11-06T17:34:04.170Z,83.50
2018-11-06T17:37:38.182Z,83.50
2018-11-06T17:41:11.446Z,83.70
2018-11-06T17:44:44.688Z,83.80
2018-11-06T17:48:17.936Z,83.90
2018-11-06T17:51:51.178Z,83.90
2018-11-06T17:55:24.469Z,84.10
2018-11-06T17:58:57.689Z,84.20
2018-11-06T18:02:30.936Z,84.40
2018-11-06T18:06:04.214Z,84.40
2018-11-06T18:09:37.485Z,84.50
2018-11-06T18:13:10.731Z,84.60
2018-11-06T18:16:43.992Z,84.80
2018-11-06T18:20:17.224Z,85.00
2018-11-06T18:23:50.490Z,85.20
2018-11-06T18:27:23.724Z,85.40
2018-11-06T18:30:56.994Z,85.50
2018-11-06T18:34:30.226Z,85.70
2018-11-06T18:38:03.601Z,85.80
2018-11-06T18:41:36.850Z,85.90
2018-11-06T18:45:10.729Z,86.10
2018-11-06T18:48:44.014Z,86.30
2018-11-06T18:52:17.646Z,86.30
2018-11-06T18:55:50.898Z,86.50
2018-11-06T18:59:24.212Z,86.70
2018-11-06T19:02:57.433Z,86.90
2018-11-06T19:06:30.693Z,87.00
2018-11-06T19:10:04.008Z,87.20
2018-11-06T19:13:37.266Z,87.70
2018-11-06T19:17:10.492Z,87.80
2018-11-06T19:20:43.744Z,88.00
2018-11-06T19:24:16.980Z,88.60
2018-11-06T19:27:50.236Z,88.50
2018-11-06T19:31:23.485Z,88.80
2018-11-06T19:34:57.591Z,88.80
2018-11-06T19:38:30.862Z,88.90
2018-11-06T19:42:04.174Z,89.20
2018-11-06T19:45:37.424Z,89.50
2018-11-06T19:49:10.662Z,89.70
2018-11-06T19:52:43.930Z,90.00
2018-11-06T19:56:17.181Z,90.10
2018-11-06T19:59:50.428Z,90.10
2018-11-06T20:03:23.698Z,90.20
2018-11-06T20:06:56.988Z,90.20
2018-11-06T20:10:30.253Z,90.30
2018-11-06T20:14:03.687Z,90.30
2018-11-06T20:17:36.937Z,90.20
2018-11-06T20:21:10.190Z,90.30
2018-11-06T20:24:43.448Z,90.40
2018-11-06T20:28:16.693Z,90.50
2018-11-06T20:31:49.969Z,90.50
2018-11-06T20:35:23.283Z,90.50
2018-11-06T20:38:56.497Z,90.50
2018-11-06T20:42:29.794Z,90.60
2018-11-06T20:46:03.033Z,90.60
2018-11-06T20:49:36.276Z,90.60
2018-11-06T20:53:09.583Z,90.50
2018-11-06T20:56:42.781Z,90.70
2018-11-06T21:00:21.196Z,90.70
2018-11-06T21:03:54.461Z,90.60
2018-11-06T21:07:27.694Z,90.60
2018-11-06T21:11:01.045Z,90.70
2018-11-06T21:14:34.290Z,90.80
2018-11-06T21:18:08.093Z,90.80
2018-11-06T21:21:41.279Z,90.80
2018-11-06T21:25:14.617Z,90.70
2018-11-06T21:28:47.848Z,90.70
2018-11-06T21:32:21.141Z,90.60
2018-11-06T21:35:54.418Z,90.70
2018-11-06T21:39:27.713Z,90.80
2018-11-06T21:43:01.598Z,90.90
2018-11-06T21:46:35.047Z,91.00
2018-11-06T21:50:10.172Z,91.10
2018-11-06T21:53:43.906Z,91.20
2018-11-06T21:57:18.817Z,91.20
2018-11-06T22:00:52.377Z,91.00
2018-11-06T22:04:25.572Z,90.90
2018-11-06T22:07:59.025Z,90.80
2018-11-06T22:11:32.257Z,90.80
2018-11-06T22:15:06.798Z,91.00
2018-11-06T22:18:40.030Z,91.00
2018-11-06T22:22:13.351Z,91.10
2018-11-06T22:25:47.112Z,91.20
2018-11-06T22:29:20.607Z,91.20
2018-11-06T22:32:53.858Z,91.30
2018-11-06T22:36:27.104Z,91.50
2018-11-06T22:40:00.393Z,91.60
2018-11-06T22:43:33.660Z,91.60
2018-11-06T22:47:06.916Z,91.60
2018-11-06T22:50:40.172Z,91.60
2018-11-06T22:54:13.898Z,91.60
2018-11-06T22:57:47.170Z,91.70
2018-11-06T23:01:25.177Z,91.70
2018-11-06T23:04:58.436Z,91.70
2018-11-06T23:08:31.729Z,91.60
2018-11-06T23:12:05.058Z,91.60
2018-11-06T23:15:38.281Z,91.60
2018-11-06T23:19:11.701Z,91.60
2018-11-06T23:22:44.931Z,91.60
2018-11-06T23:26:18.187Z,91.60
2018-11-06T23:29:51.426Z,91.60
2018-11-06T23:33:24.828Z,91.70
2018-11-06T23:36:58.056Z,91.70
2018-11-06T23:40:31.309Z,91.80
2018-11-06T23:44:04.797Z,91.90
2018-11-06T23:47:38.046Z,91.80
2018-11-06T23:51:11.289Z,91.80
2018-11-06T23:54:44.548Z,91.70
2018-11-06T23:58:17.778Z,91.60
